createdAt,value
2018-11-02T00:00:49.385Z,7.74
2018-11-02T00:01:50.755Z,7.76
2018-11-02T00:02:52.132Z,7.73
2018-11-02T00:03:53.507Z,7.69
2018-11-02T00:04:54.902Z,7.71
2018-11-02T00:05:56.276Z,7.69
2018-11-02T00:06:57.666Z,7.67
2018-11-02T00:07:59.039Z,7.71
2018-11-02T00:09:00.414Z,7.63
2018-11-02T00:10:01.788Z,7.74
2018-11-02T00:11:03.225Z,7.60
2018-11-02T00:12:04.556Z,7.79
2018-11-02T00:13:05.926Z,7.69
2018-11-02T00:14:07.309Z,7.69
2018-11-02T00:15:09.420Z,7.71
2018-11-02T00:16:10.794Z,7.69
2018-11-02T00:17:12.182Z,7.70
2018-11-02T00:18:13.550Z,7.67
2018-11-02T00:19:15.579Z,7.63
2018-11-02T00:20:16.960Z,7.66
2018-11-02T00:21:18.322Z,7.60
2018-11-02T00:22:19.703Z,7.57
2018-11-02T00:23:21.082Z,7.55
2018-11-02T00:24:22.463Z,7.66
2018-11-02T00:25:23.834Z,7.58
2018-11-02T00:26:25.179Z,7.54
2018-11-02T00:27:26.553Z,7.58
2018-11-02T00:28:27.923Z,7.62
2018-11-02T00:29:29.308Z,7.57
2018-11-02T00:30:31.630Z,7.55
2018-11-02T00:31:33.007Z,7.60
2018-11-02T00:32:35.177Z,7.51
2018-11-02T00:33:35.708Z,7.54
2018-11-02T00:34:37.078Z,7.51
2018-11-02T00:35:39.084Z,7.45
2018-11-02T00:36:40.453Z,7.41
2018-11-02T00:37:41.831Z,7.50
2018-11-02T00:38:43.211Z,7.51
2018-11-02T00:39:44.590Z,7.55
2018-11-02T00:40:45.960Z,7.48
2018-11-02T00:41:47.334Z,7.42
2018-11-02T00:42:49.615Z,7.45
2018-11-02T00:43:51.026Z,7.42
2018-11-02T00:44:52.378Z,7.41
2018-11-02T00:45:53.747Z,7.42
2018-11-02T00:46:55.127Z,7.41
2018-11-02T00:47:56.505Z,7.44
2018-11-02T00:48:57.891Z,7.44
2018-11-02T00:49:59.253Z,7.45
2018-11-02T00:51:00.623Z,7.47
2018-11-02T00:52:02.011Z,7.39
2018-11-02T00:53:03.853Z,7.30
2018-11-02T00:54:05.120Z,7.33
2018-11-02T00:55:06.503Z,7.39
2018-11-02T00:56:07.869Z,7.32
2018-11-02T00:57:09.248Z,7.32
2018-11-02T00:58:10.624Z,7.26
2018-11-02T00:59:11.999Z,7.29
2018-11-02T01:00:13.381Z,7.42
2018-11-02T01:01:14.751Z,7.36
2018-11-02T01:02:16.132Z,7.34
2018-11-02T01:03:17.506Z,7.33
2018-11-02T01:04:18.887Z,7.33
2018-11-02T01:05:20.269Z,7.23
2018-11-02T01:06:21.671Z,7.32
2018-11-02T01:07:23.021Z,7.33
2018-11-02T01:08:24.395Z,7.14
2018-11-02T01:09:25.778Z,7.19
2018-11-02T01:10:27.152Z,7.26
2018-11-02T01:11:28.532Z,7.15
2018-11-02T01:12:29.898Z,7.29
2018-11-02T01:13:31.280Z,7.18
2018-11-02T01:14:32.675Z,7.19
2018-11-02T01:15:34.038Z,7.27
2018-11-02T01:16:35.445Z,7.23
2018-11-02T01:17:36.792Z,7.15
2018-11-02T01:18:38.177Z,7.19
2018-11-02T01:19:39.558Z,7.23
2018-11-02T01:20:40.938Z,7.24
2018-11-02T01:21:42.305Z,7.23
2018-11-02T01:22:43.691Z,7.23
2018-11-02T01:23:45.063Z,7.21
2018-11-02T01:24:46.443Z,7.19
2018-11-02T01:25:47.818Z,7.15
2018-11-02T01:26:49.197Z,7.14
2018-11-02T01:27:50.569Z,7.08
2018-11-02T01:28:51.997Z,7.19
2018-11-02T01:29:53.335Z,7.23
2018-11-02T01:30:54.699Z,7.19
2018-11-02T01:31:56.082Z,7.21
2018-11-02T01:32:57.471Z,7.19
2018-11-02T01:33:58.840Z,7.16
2018-11-02T01:35:00.216Z,7.19
2018-11-02T01:36:01.615Z,7.19
2018-11-02T01:37:02.970Z,7.16
2018-11-02T01:38:04.346Z,7.21
2018-11-02T01:39:05.715Z,7.26
2018-11-02T01:40:07.086Z,7.29
2018-11-02T01:41:08.470Z,7.27
2018-11-02T01:42:09.848Z,7.21
2018-11-02T01:43:11.227Z,7.39
2018-11-02T01:44:12.591Z,7.37
2018-11-02T01:45:13.966Z,7.29
2018-11-02T01:46:15.303Z,7.30
2018-11-02T01:47:16.676Z,7.32
2018-11-02T01:48:18.049Z,7.29
2018-11-02T01:49:19.423Z,7.21
2018-11-02T01:50:20.797Z,7.29
2018-11-02T01:51:22.173Z,7.26
2018-11-02T01:52:23.549Z,7.29
2018-11-02T01:53:24.925Z,7.26
2018-11-02T01:54:26.296Z,7.29
2018-11-02T01:55:27.677Z,7.33
2018-11-02T01:56:29.057Z,7.30
2018-11-02T01:57:30.431Z,7.27
2018-11-02T01:58:31.814Z,7.37
2018-11-02T01:59:33.145Z,7.19
2018-11-02T02:00:34.520Z,7.30
2018-11-02T02:01:35.910Z,7.41
2018-11-02T02:02:37.288Z,7.24
2018-11-02T02:03:38.666Z,7.29
2018-11-02T02:04:40.047Z,7.33
2018-11-02T02:05:41.418Z,7.33
2018-11-02T02:06:42.791Z,7.26
2018-11-02T02:07:44.165Z,7.26
2018-11-02T02:08:45.542Z,7.32
2018-11-02T02:09:46.915Z,7.26
2018-11-02T02:10:48.296Z,7.32
2018-11-02T02:11:49.674Z,7.16
2018-11-02T02:12:51.050Z,7.19
2018-11-02T02:13:52.420Z,7.16
2018-11-02T02:14:53.804Z,7.19
2018-11-02T02:15:55.171Z,7.15
2018-11-02T02:16:56.549Z,7.16
2018-11-02T02:17:58.857Z,7.18
2018-11-02T02:19:00.233Z,7.04
2018-11-02T02:20:01.603Z,7.05
2018-11-02T02:21:02.985Z,7.00
2018-11-02T02:22:04.359Z,7.07
2018-11-02T02:23:05.738Z,7.07
2018-11-02T02:24:07.107Z,6.99
2018-11-02T02:25:08.489Z,7.00
2018-11-02T02:26:09.864Z,7.00
2018-11-02T02:27:11.244Z,7.01
2018-11-02T02:28:12.612Z,6.97
2018-11-02T02:29:13.990Z,6.97
2018-11-02T02:30:15.364Z,6.93
2018-11-02T02:31:16.740Z,6.96
2018-11-02T02:32:18.110Z,6.93
2018-11-02T02:33:19.484Z,6.96
2018-11-02T02:34:20.860Z,6.81
2018-11-02T02:35:22.246Z,6.78
2018-11-02T02:36:23.608Z,6.79
2018-11-02T02:37:24.996Z,6.83
2018-11-02T02:38:26.366Z,6.82
2018-11-02T02:39:27.754Z,6.78
2018-11-02T02:40:29.074Z,6.82
2018-11-02T02:41:30.458Z,6.75
2018-11-02T02:42:31.841Z,6.73
2018-11-02T02:43:33.208Z,6.69
2018-11-02T02:44:34.592Z,6.68
2018-11-02T02:45:35.969Z,6.71
2018-11-02T02:46:37.350Z,6.68
2018-11-02T02:47:38.731Z,6.71
2018-11-02T02:48:40.100Z,6.53
2018-11-02T02:49:41.481Z,6.58
2018-11-02T02:50:42.852Z,6.53
2018-11-02T02:51:44.224Z,6.53
2018-11-02T02:52:45.613Z,6.51
2018-11-02T02:53:46.995Z,6.50
2018-11-02T02:54:48.376Z,6.55
2018-11-02T02:55:49.761Z,6.48
2018-11-02T02:56:51.130Z,6.46
2018-11-02T02:57:52.510Z,6.40
2018-11-02T02:58:53.893Z,6.43
2018-11-02T02:59:55.277Z,6.42
2018-11-02T03:00:56.646Z,6.36
2018-11-02T03:01:58.034Z,6.40
2018-11-02T03:02:59.412Z,6.50
2018-11-02T03:04:00.795Z,6.40
2018-11-02T03:05:02.156Z,6.39
2018-11-02T03:06:03.489Z,6.33
2018-11-02T03:07:04.860Z,6.35
2018-11-02T03:08:06.232Z,6.32
2018-11-02T03:09:07.612Z,6.30
2018-11-02T03:10:08.981Z,6.17
2018-11-02T03:11:10.561Z,6.28
2018-11-02T03:12:11.695Z,6.32
2018-11-02T03:13:13.073Z,6.21
2018-11-02T03:14:14.446Z,6.24
2018-11-02T03:15:15.821Z,6.30
2018-11-02T03:16:17.196Z,6.24
2018-11-02T03:17:18.576Z,6.17
2018-11-02T03:18:20.003Z,6.19
2018-11-02T03:19:21.385Z,6.19
2018-11-02T03:20:22.731Z,6.20
2018-11-02T03:21:24.111Z,6.19
2018-11-02T03:22:25.603Z,6.11
2018-11-02T03:23:26.859Z,6.11
2018-11-02T03:24:28.245Z,6.19
2018-11-02T03:25:29.615Z,6.14
2018-11-02T03:26:30.989Z,6.03
2018-11-02T03:27:32.420Z,6.14
2018-11-02T03:28:33.766Z,5.98
2018-11-02T03:29:35.137Z,6.02
2018-11-02T03:30:36.515Z,6.02
2018-11-02T03:31:37.888Z,6.11
2018-11-02T03:32:39.262Z,6.03
2018-11-02T03:33:40.638Z,6.02
2018-11-02T03:34:42.008Z,6.02
2018-11-02T03:35:43.388Z,6.08
2018-11-02T03:36:44.811Z,5.98
2018-11-02T03:37:46.168Z,6.02
2018-11-02T03:38:47.511Z,6.01
2018-11-02T03:39:48.882Z,6.01
2018-11-02T03:40:50.254Z,5.93
2018-11-02T03:41:51.626Z,5.90
2018-11-02T03:42:53.894Z,5.88
2018-11-02T03:43:55.272Z,5.99
2018-11-02T03:44:56.644Z,5.95
2018-11-02T03:45:58.054Z,5.93
2018-11-02T03:46:59.396Z,5.88
2018-11-02T03:48:00.771Z,5.93
2018-11-02T03:49:02.156Z,5.83
2018-11-02T03:50:03.524Z,5.85
2018-11-02T03:51:04.911Z,5.83
2018-11-02T03:52:06.280Z,5.83
2018-11-02T03:53:07.885Z,5.88
2018-11-02T03:54:09.046Z,5.85
2018-11-02T03:55:10.417Z,5.80
2018-11-02T03:56:11.787Z,5.83
2018-11-02T03:57:13.170Z,5.83
2018-11-02T03:58:14.497Z,5.83
2018-11-02T03:59:15.880Z,5.77
2018-11-02T04:00:17.255Z,5.67
2018-11-02T04:01:18.627Z,5.83
2018-11-02T04:02:19.995Z,5.81
2018-11-02T04:03:21.376Z,5.84
2018-11-02T04:04:22.767Z,5.78
2018-11-02T04:05:24.132Z,5.78
2018-11-02T04:06:25.509Z,5.78
2018-11-02T04:07:26.880Z,5.81
2018-11-02T04:08:28.246Z,5.75
2018-11-02T04:09:29.687Z,5.75
2018-11-02T04:10:31.004Z,5.73
2018-11-02T04:11:32.339Z,5.78
2018-11-02T04:12:33.720Z,5.74
2018-11-02T04:13:35.095Z,5.80
2018-11-02T04:14:36.468Z,5.75
2018-11-02T04:15:37.842Z,5.73
2018-11-02T04:16:39.218Z,5.73
2018-11-02T04:17:40.595Z,5.78
2018-11-02T04:18:41.973Z,5.75
2018-11-02T04:19:43.351Z,5.74
2018-11-02T04:20:44.721Z,5.75
2018-11-02T04:21:46.089Z,5.81
2018-11-02T04:22:47.459Z,5.70
2018-11-02T04:23:48.841Z,5.77
2018-11-02T04:24:50.176Z,5.70
2018-11-02T04:25:51.545Z,5.78
2018-11-02T04:26:52.928Z,5.73
2018-11-02T04:27:54.300Z,5.80
2018-11-02T04:28:55.680Z,5.73
2018-11-02T04:29:57.048Z,5.70
2018-11-02T04:30:58.486Z,5.69
2018-11-02T04:31:59.804Z,5.69
2018-11-02T04:33:01.178Z,5.69
2018-11-02T04:34:02.553Z,5.67
2018-11-02T04:35:03.931Z,5.60
2018-11-02T04:36:05.309Z,5.63
2018-11-02T04:37:06.674Z,5.63
2018-11-02T04:38:08.056Z,5.60
2018-11-02T04:39:09.431Z,5.65
2018-11-02T04:40:10.806Z,5.67
2018-11-02T04:41:12.186Z,5.67
2018-11-02T04:42:13.559Z,5.65
2018-11-02T04:43:14.934Z,5.66
2018-11-02T04:44:16.307Z,5.63
2018-11-02T04:45:17.687Z,5.59
2018-11-02T04:46:19.855Z,5.58
2018-11-02T04:47:21.235Z,5.62
2018-11-02T04:48:22.604Z,5.65
2018-11-02T04:49:23.975Z,5.63
2018-11-02T04:50:25.346Z,5.59
2018-11-02T04:51:26.679Z,5.60
2018-11-02T04:52:28.050Z,5.69
2018-11-02T04:53:29.432Z,5.63
2018-11-02T04:54:30.805Z,5.67
2018-11-02T04:55:32.170Z,5.60
2018-11-02T04:56:33.553Z,5.62
2018-11-02T04:57:34.926Z,5.65
2018-11-02T04:58:36.299Z,5.65
2018-11-02T04:59:37.673Z,5.60
2018-11-02T05:00:39.045Z,5.58
2018-11-02T05:01:40.406Z,5.65
2018-11-02T05:02:41.785Z,5.62
2018-11-02T05:03:43.157Z,5.60
2018-11-02T05:04:44.544Z,5.59
2018-11-02T05:05:45.916Z,5.65
2018-11-02T05:06:47.283Z,5.63
2018-11-02T05:07:48.664Z,5.59
2018-11-02T05:08:50.031Z,5.62
2018-11-02T05:09:51.420Z,5.62
2018-11-02T05:10:52.777Z,5.52
2018-11-02T05:11:54.156Z,5.59
2018-11-02T05:12:55.533Z,5.58
2018-11-02T05:13:56.910Z,5.52
2018-11-02T05:14:58.290Z,5.63
2018-11-02T05:15:59.667Z,5.51
2018-11-02T05:17:01.039Z,5.55
2018-11-02T05:18:02.417Z,5.49
2018-11-02T05:19:03.795Z,5.52
2018-11-02T05:20:05.173Z,5.52
2018-11-02T05:21:06.600Z,5.45
2018-11-02T05:22:07.887Z,5.45
2018-11-02T05:23:09.271Z,5.48
2018-11-02T05:24:10.651Z,5.42
2018-11-02T05:25:12.023Z,5.41
2018-11-02T05:26:13.408Z,5.49
2018-11-02T05:27:14.771Z,5.40
2018-11-02T05:28:16.154Z,5.44
2018-11-02T05:29:17.530Z,5.41
2018-11-02T05:30:18.915Z,5.37
2018-11-02T05:31:20.275Z,5.37
2018-11-02T05:32:21.660Z,5.35
2018-11-02T05:33:23.038Z,5.33
2018-11-02T05:34:24.418Z,5.37
2018-11-02T05:35:25.793Z,5.27
2018-11-02T05:36:27.181Z,5.35
2018-11-02T05:37:28.540Z,5.35
2018-11-02T05:38:29.922Z,5.37
2018-11-02T05:39:31.316Z,5.26
2018-11-02T05:40:32.621Z,5.27
2018-11-02T05:41:34.001Z,5.29
2018-11-02T05:42:35.377Z,5.24
2018-11-02T05:43:36.751Z,5.33
2018-11-02T05:44:38.083Z,5.27
2018-11-02T05:45:39.454Z,5.30
2018-11-02T05:46:40.829Z,5.27
2018-11-02T05:47:42.206Z,5.32
2018-11-02T05:48:43.577Z,5.37
2018-11-02T05:49:44.961Z,5.35
2018-11-02T05:50:46.326Z,5.30
2018-11-02T05:51:47.705Z,5.26
2018-11-02T05:52:49.101Z,5.29
2018-11-02T05:53:50.476Z,5.30
2018-11-02T05:54:51.848Z,5.33
2018-11-02T05:55:53.220Z,5.24
2018-11-02T05:56:54.604Z,5.22
2018-11-02T05:57:55.982Z,5.22
2018-11-02T05:58:57.358Z,5.22
2018-11-02T05:59:58.808Z,5.22
2018-11-02T06:01:00.097Z,5.19
2018-11-02T06:02:01.445Z,5.12
2018-11-02T06:03:02.821Z,5.09
2018-11-02T06:04:04.198Z,5.12
2018-11-02T06:05:05.566Z,5.20
2018-11-02T06:06:06.946Z,5.17
2018-11-02T06:07:08.326Z,5.22
2018-11-02T06:08:09.696Z,5.14
2018-11-02T06:09:11.069Z,5.22
2018-11-02T06:10:12.439Z,5.11
2018-11-02T06:11:13.781Z,5.11
2018-11-02T06:12:15.157Z,5.17
2018-11-02T06:13:16.530Z,5.14
2018-11-02T06:14:17.911Z,5.14
2018-11-02T06:15:19.287Z,5.12
2018-11-02T06:16:20.663Z,5.15
2018-11-02T06:17:22.047Z,5.15
2018-11-02T06:18:23.423Z,5.09
2018-11-02T06:19:24.813Z,5.19
2018-11-02T06:20:26.192Z,5.14
2018-11-02T06:21:27.573Z,5.15
2018-11-02T06:22:28.952Z,5.11
2018-11-02T06:23:30.331Z,5.09
2018-11-02T06:24:31.706Z,5.09
2018-11-02T06:25:33.082Z,5.06
2018-11-02T06:26:34.474Z,5.12
2018-11-02T06:27:35.840Z,5.09
2018-11-02T06:28:37.222Z,5.19
2018-11-02T06:29:38.606Z,5.09
2018-11-02T06:30:40.005Z,5.20
2018-11-02T06:31:41.386Z,5.26
2018-11-02T06:32:42.843Z,5.23
2018-11-02T06:33:44.077Z,5.30
2018-11-02T06:34:45.462Z,5.27
2018-11-02T06:35:46.842Z,5.27
2018-11-02T06:36:48.230Z,5.23
2018-11-02T06:37:49.612Z,5.24
2018-11-02T06:38:51.087Z,5.29
2018-11-02T06:39:52.412Z,5.29
2018-11-02T06:40:53.790Z,5.27
2018-11-02T06:41:55.169Z,5.32
2018-11-02T06:42:56.567Z,5.29
2018-11-02T06:43:57.951Z,5.38
2018-11-02T06:44:59.410Z,5.29
2018-11-02T06:46:00.705Z,5.27
2018-11-02T06:47:02.093Z,5.27
2018-11-02T06:48:03.473Z,5.29
2018-11-02T06:49:04.855Z,5.26
2018-11-02T06:50:06.237Z,5.27
2018-11-02T06:51:07.775Z,5.35
2018-11-02T06:52:08.987Z,5.44
2018-11-02T06:53:10.366Z,5.42
2018-11-02T06:54:11.742Z,5.42
2018-11-02T06:55:13.128Z,5.52
2018-11-02T06:56:14.498Z,5.49
2018-11-02T06:57:15.880Z,5.63
2018-11-02T06:58:17.264Z,5.60
2018-11-02T06:59:18.709Z,5.65
2018-11-02T07:00:20.056Z,5.65
2018-11-02T07:01:21.409Z,5.65
2018-11-02T07:02:22.798Z,5.70
2018-11-02T07:03:24.169Z,5.77
2018-11-02T07:04:25.507Z,5.81
2018-11-02T07:05:26.885Z,5.78
2018-11-02T07:06:28.267Z,5.78
2018-11-02T07:07:29.911Z,5.83
2018-11-02T07:08:31.053Z,5.84
2018-11-02T07:09:32.361Z,5.90
2018-11-02T07:10:33.749Z,5.95
2018-11-02T07:11:35.116Z,5.98
2018-11-02T07:12:36.497Z,6.03
2018-11-02T07:13:37.863Z,6.10
2018-11-02T07:14:39.246Z,6.17
2018-11-02T07:15:40.621Z,6.14
2018-11-02T07:16:42.003Z,6.17
2018-11-02T07:17:43.377Z,6.24
2018-11-02T07:18:44.766Z,6.30
2018-11-02T07:19:46.158Z,6.24
2018-11-02T07:20:47.572Z,6.27
2018-11-02T07:21:48.904Z,6.24
2018-11-02T07:22:50.283Z,6.27
2018-11-02T07:23:51.681Z,6.28
2018-11-02T07:24:53.024Z,6.38
2018-11-02T07:25:54.378Z,6.40
2018-11-02T07:26:55.770Z,6.43
2018-11-02T07:27:57.154Z,6.64
2018-11-02T07:28:58.528Z,6.65
2018-11-02T07:29:59.906Z,6.69
2018-11-02T07:31:01.284Z,6.83
2018-11-02T07:32:02.657Z,6.86
2018-11-02T07:33:04.040Z,7.09
2018-11-02T07:34:05.438Z,7.01
2018-11-02T07:35:06.805Z,7.15
2018-11-02T07:36:08.188Z,7.18
2018-11-02T07:37:09.563Z,7.34
2018-11-02T07:38:10.949Z,7.52
2018-11-02T07:39:12.321Z,7.67
2018-11-02T07:40:13.707Z,7.66
2018-11-02T07:41:15.093Z,7.82
2018-11-02T07:42:16.469Z,8.00
2018-11-02T07:43:17.855Z,8.02
2018-11-02T07:44:19.234Z,8.14
2018-11-02T07:45:20.612Z,8.28
2018-11-02T07:46:21.991Z,8.28
2018-11-02T07:47:23.396Z,8.29
2018-11-02T07:48:24.720Z,8.34
2018-11-02T07:49:26.122Z,8.47
2018-11-02T07:50:27.442Z,8.52
2018-11-02T07:51:28.823Z,8.70
2018-11-02T07:52:30.212Z,8.79
2018-11-02T07:53:31.591Z,8.83
2018-11-02T07:54:32.972Z,8.82
2018-11-02T07:55:34.346Z,8.85
2018-11-02T07:56:35.732Z,8.97
2018-11-02T07:57:37.112Z,8.98
2018-11-02T07:58:38.504Z,9.26
2018-11-02T07:59:39.890Z,9.27
2018-11-02T08:00:41.275Z,9.37
2018-11-02T08:01:42.720Z,9.41
2018-11-02T08:02:44.040Z,9.63
2018-11-02T08:03:45.434Z,9.70
2018-11-02T08:04:46.830Z,9.83
2018-11-02T08:05:48.211Z,9.95
2018-11-02T08:06:49.625Z,10.11
2018-11-02T08:07:50.970Z,10.28
2018-11-02T08:08:52.361Z,10.47
2018-11-02T08:09:53.738Z,10.39
2018-11-02T08:10:55.130Z,10.47
2018-11-02T08:11:56.521Z,10.47
2018-11-02T08:12:57.900Z,10.47
2018-11-02T08:13:59.286Z,10.60
2018-11-02T08:15:00.633Z,10.80
2018-11-02T08:16:02.023Z,10.76
2018-11-02T08:17:03.402Z,10.80
2018-11-02T08:18:04.799Z,10.95
2018-11-02T08:19:06.326Z,10.98
2018-11-02T08:20:07.562Z,10.94
2018-11-02T08:21:08.949Z,11.12
2018-11-02T08:22:10.342Z,11.06
2018-11-02T08:23:11.689Z,11.12
2018-11-02T08:24:13.084Z,10.98
2018-11-02T08:25:14.480Z,10.95
2018-11-02T08:26:15.859Z,10.93
2018-11-02T08:27:17.234Z,10.90
2018-11-02T08:28:18.623Z,11.02
2018-11-02T08:29:20.004Z,11.08
2018-11-02T08:30:21.388Z,11.08
2018-11-02T08:31:22.779Z,11.24
2018-11-02T08:32:24.168Z,11.30
2018-11-02T08:33:25.573Z,11.46
2018-11-02T08:34:26.944Z,11.56
2018-11-02T08:35:28.341Z,11.74
2018-11-02T08:36:29.723Z,11.77
2018-11-02T08:37:31.112Z,11.90
2018-11-02T08:38:32.494Z,12.03
2018-11-02T08:39:33.885Z,12.26
2018-11-02T08:40:35.288Z,12.41
2018-11-02T08:41:36.675Z,12.63
2018-11-02T08:42:38.067Z,12.67
2018-11-02T08:43:39.457Z,12.81
2018-11-02T08:44:40.837Z,12.98
2018-11-02T08:45:42.235Z,13.07
2018-11-02T08:46:43.622Z,13.06
2018-11-02T08:47:45.011Z,13.06
2018-11-02T08:48:46.392Z,12.94
2018-11-02T08:49:47.791Z,12.76
2018-11-02T08:50:49.181Z,12.67
2018-11-02T08:51:50.572Z,12.61
2018-11-02T08:52:51.971Z,12.55
2018-11-02T08:53:53.363Z,12.46
2018-11-02T08:54:54.747Z,12.37
2018-11-02T08:55:56.138Z,12.33
2018-11-02T08:56:57.528Z,12.31
2018-11-02T08:57:59.063Z,12.31
2018-11-02T08:59:00.337Z,12.25
2018-11-02T09:00:01.674Z,12.26
2018-11-02T09:01:03.556Z,12.12
2018-11-02T09:02:04.942Z,12.12
2018-11-02T09:03:06.356Z,12.33
2018-11-02T09:04:07.760Z,12.38
2018-11-02T09:05:09.238Z,12.59
2018-11-02T09:06:10.552Z,12.79
2018-11-02T09:07:11.950Z,13.03
2018-11-02T09:08:13.344Z,13.09
2018-11-02T09:09:14.747Z,13.24
2018-11-02T09:10:16.125Z,13.24
2018-11-02T09:11:17.521Z,13.38
2018-11-02T09:12:18.938Z,13.50
2018-11-02T09:13:20.295Z,13.59
2018-11-02T09:14:21.681Z,13.68
2018-11-02T09:15:23.067Z,13.76
2018-11-02T09:16:24.460Z,13.84
2018-11-02T09:17:25.855Z,13.90
2018-11-02T09:18:27.284Z,13.96
2018-11-02T09:19:28.689Z,14.09
2018-11-02T09:20:30.033Z,14.09
2018-11-02T09:21:31.468Z,14.05
2018-11-02T09:22:32.815Z,14.06
2018-11-02T09:23:34.204Z,13.99
2018-11-02T09:24:35.599Z,13.98
2018-11-02T09:25:36.983Z,13.98
2018-11-02T09:26:38.379Z,14.11
2018-11-02T09:27:39.796Z,14.17
2018-11-02T09:28:41.125Z,14.29
2018-11-02T09:29:42.529Z,14.35
2018-11-02T09:30:43.899Z,14.30
2018-11-02T09:31:45.258Z,14.31
2018-11-02T09:32:46.632Z,14.53
2018-11-02T09:33:48.022Z,14.63
2018-11-02T09:34:49.421Z,14.78
2018-11-02T09:35:50.811Z,15.04
2018-11-02T09:36:53.036Z,15.30
2018-11-02T09:37:54.418Z,15.38
2018-11-02T09:38:55.807Z,15.49
2018-11-02T09:39:57.203Z,15.68
2018-11-02T09:40:58.598Z,15.76
2018-11-02T09:42:00.000Z,15.71
2018-11-02T09:43:01.396Z,15.62
2018-11-02T09:44:02.790Z,15.53
2018-11-02T09:45:04.186Z,15.52
2018-11-02T09:46:05.580Z,15.35
2018-11-02T09:47:06.970Z,15.34
2018-11-02T09:48:08.357Z,15.30
2018-11-02T09:49:09.756Z,15.20
2018-11-02T09:50:11.147Z,15.16
2018-11-02T09:51:12.551Z,15.22
2018-11-02T09:52:13.928Z,15.19
2018-11-02T09:53:15.319Z,15.18
2018-11-02T09:54:16.717Z,15.22
2018-11-02T09:55:18.098Z,15.35
2018-11-02T09:56:19.503Z,15.43
2018-11-02T09:57:20.883Z,15.55
2018-11-02T09:58:22.264Z,15.62
2018-11-02T09:59:23.649Z,15.71
2018-11-02T10:00:25.041Z,15.62
2018-11-02T10:01:26.430Z,15.67
2018-11-02T10:02:27.819Z,15.60
2018-11-02T10:03:29.740Z,15.59
2018-11-02T10:04:31.141Z,15.66
2018-11-02T10:05:32.547Z,15.60
2018-11-02T10:06:33.931Z,15.66
2018-11-02T10:07:35.317Z,15.49
2018-11-02T10:08:36.705Z,15.41
2018-11-02T10:09:38.127Z,15.37
2018-11-02T10:10:39.495Z,15.27
2018-11-02T10:11:40.889Z,15.41
2018-11-02T10:12:42.272Z,15.37
2018-11-02T10:13:43.669Z,15.33
2018-11-02T10:14:45.065Z,15.19
2018-11-02T10:15:46.451Z,15.20
2018-11-02T10:16:47.834Z,15.30
2018-11-02T10:17:49.243Z,15.31
2018-11-02T10:18:50.642Z,15.35
2018-11-02T10:19:52.029Z,15.30
2018-11-02T10:20:53.419Z,15.35
2018-11-02T10:21:54.822Z,15.34
2018-11-02T10:22:56.203Z,15.44
2018-11-02T10:23:57.651Z,15.46
2018-11-02T10:24:59.057Z,15.38
2018-11-02T10:26:00.398Z,15.46
2018-11-02T10:27:01.800Z,15.58
2018-11-02T10:28:03.257Z,15.62
2018-11-02T10:29:04.550Z,15.70
2018-11-02T10:30:05.941Z,15.76
2018-11-02T10:31:07.324Z,15.67
2018-11-02T10:32:08.734Z,15.48
2018-11-02T10:33:10.114Z,15.53
2018-11-02T10:34:11.458Z,15.56
2018-11-02T10:35:12.865Z,15.52
2018-11-02T10:36:14.250Z,15.58
2018-11-02T10:37:15.639Z,15.56
2018-11-02T10:38:16.986Z,15.46
2018-11-02T10:39:18.436Z,15.49
2018-11-02T10:40:19.777Z,15.56
2018-11-02T10:41:21.156Z,15.60
2018-11-02T10:42:22.561Z,15.66
2018-11-02T10:43:23.932Z,15.76
2018-11-02T10:44:25.435Z,15.70
2018-11-02T10:45:26.736Z,15.74
2018-11-02T10:46:28.077Z,15.74
2018-11-02T10:47:29.468Z,15.84
2018-11-02T10:48:30.889Z,15.85
2018-11-02T10:49:32.369Z,15.91
2018-11-02T10:50:33.667Z,15.81
2018-11-02T10:51:35.056Z,15.73
2018-11-02T10:52:36.451Z,15.84
2018-11-02T10:53:37.841Z,15.84
2018-11-02T10:54:39.305Z,15.85
2018-11-02T10:55:40.591Z,15.84
2018-11-02T10:56:42.011Z,15.77
2018-11-02T10:57:43.340Z,15.64
2018-11-02T10:58:44.734Z,15.59
2018-11-02T10:59:46.135Z,15.64
2018-11-02T11:00:47.563Z,15.66
2018-11-02T11:01:48.874Z,15.71
2018-11-02T11:02:50.286Z,15.74
2018-11-02T11:03:51.626Z,15.77
2018-11-02T11:04:52.990Z,15.81
2018-11-02T11:05:54.400Z,15.66
2018-11-02T11:06:55.742Z,15.66
2018-11-02T11:07:57.141Z,15.71
2018-11-02T11:08:58.544Z,15.51
2018-11-02T11:09:59.941Z,15.49
2018-11-02T11:11:01.277Z,15.41
2018-11-02T11:12:02.694Z,15.31
2018-11-02T11:13:04.205Z,15.28
2018-11-02T11:14:05.358Z,15.18
2018-11-02T11:15:06.707Z,15.15
2018-11-02T11:16:08.052Z,15.23
2018-11-02T11:17:09.399Z,15.20
2018-11-02T11:18:10.749Z,15.27
2018-11-02T11:19:12.094Z,15.23
2018-11-02T11:20:13.442Z,15.22
2018-11-02T11:21:14.856Z,15.31
2018-11-02T11:22:16.139Z,15.37
2018-11-02T11:23:17.528Z,15.38
2018-11-02T11:24:18.917Z,15.23
2018-11-02T11:25:20.308Z,15.23
2018-11-02T11:26:21.703Z,15.22
2018-11-02T11:27:23.093Z,15.13
2018-11-02T11:28:24.487Z,15.28
2018-11-02T11:29:26.007Z,15.25
2018-11-02T11:30:27.223Z,15.22
2018-11-02T11:31:28.617Z,15.18
2018-11-02T11:32:30.002Z,15.16
2018-11-02T11:33:31.400Z,15.20
2018-11-02T11:34:32.796Z,15.23
2018-11-02T11:35:34.189Z,15.34
2018-11-02T11:36:35.592Z,15.34
2018-11-02T11:37:36.994Z,15.40
2018-11-02T11:38:38.380Z,15.53
2018-11-02T11:39:39.825Z,15.55
2018-11-02T11:40:41.175Z,15.74
2018-11-02T11:41:42.552Z,15.78
2018-11-02T11:42:43.948Z,15.85
2018-11-02T11:43:45.342Z,15.84
2018-11-02T11:44:46.732Z,15.93
2018-11-02T11:45:48.122Z,15.92
2018-11-02T11:46:49.529Z,15.91
2018-11-02T11:47:50.920Z,15.84
2018-11-02T11:48:52.463Z,15.73
2018-11-02T11:49:53.667Z,15.80
2018-11-02T11:50:55.059Z,15.74
2018-11-02T11:51:56.447Z,15.77
2018-11-02T11:52:57.873Z,15.78
2018-11-02T11:53:59.228Z,15.85
2018-11-02T11:55:00.626Z,15.81
2018-11-02T11:56:02.026Z,15.88
2018-11-02T11:57:03.420Z,15.84
2018-11-02T11:58:04.824Z,15.84
2018-11-02T11:59:06.216Z,15.81
2018-11-02T12:00:07.613Z,15.80
2018-11-02T12:01:08.992Z,15.81
2018-11-02T12:02:10.433Z,15.76
2018-11-02T12:03:11.769Z,15.74
2018-11-02T12:04:13.184Z,15.73
2018-11-02T12:05:14.558Z,15.73
2018-11-02T12:06:15.947Z,15.71
2018-11-02T12:07:17.344Z,15.70
2018-11-02T12:08:18.732Z,15.66
2018-11-02T12:09:20.169Z,15.62
2018-11-02T12:10:21.521Z,15.46
2018-11-02T12:11:22.903Z,15.55
2018-11-02T12:12:24.299Z,15.40
2018-11-02T12:13:25.689Z,15.43
2018-11-02T12:14:27.080Z,15.35
2018-11-02T12:15:28.465Z,15.27
2018-11-02T12:16:29.818Z,15.23
2018-11-02T12:17:35.565Z,15.19
2018-11-02T12:18:36.958Z,15.16
2018-11-02T12:19:38.344Z,15.22
2018-11-02T12:20:39.730Z,15.15
2018-11-02T12:21:41.180Z,15.20
2018-11-02T12:22:43.227Z,15.15
2018-11-02T12:23:44.618Z,15.16
2018-11-02T12:24:45.968Z,15.04
2018-11-02T12:25:47.311Z,15.03
2018-11-02T12:26:48.706Z,15.07
2018-11-02T12:27:50.087Z,14.97
2018-11-02T12:28:51.484Z,14.91
2018-11-02T12:29:52.855Z,14.91
2018-11-02T12:30:54.246Z,14.85
2018-11-02T12:31:55.641Z,14.85
2018-11-02T12:32:57.032Z,14.80
2018-11-02T12:33:58.416Z,14.79
2018-11-02T12:34:59.810Z,14.78
2018-11-02T12:36:01.200Z,14.80
2018-11-02T12:37:02.625Z,14.79
2018-11-02T12:38:04.800Z,14.69
2018-11-02T12:39:06.181Z,14.69
2018-11-02T12:40:07.578Z,14.64
2018-11-02T12:41:08.963Z,14.59
2018-11-02T12:42:10.342Z,14.60
2018-11-02T12:43:11.774Z,14.59
2018-11-02T12:44:13.097Z,14.59
2018-11-02T12:45:14.483Z,14.49
2018-11-02T12:46:15.871Z,14.52
2018-11-02T12:47:17.262Z,14.56
2018-11-02T12:48:18.696Z,14.53
2018-11-02T12:49:20.382Z,14.57
2018-11-02T12:50:21.545Z,14.54
2018-11-02T12:51:22.815Z,14.46
2018-11-02T12:52:24.213Z,14.39
2018-11-02T12:53:25.608Z,14.53
2018-11-02T12:54:26.995Z,14.39
2018-11-02T12:55:28.388Z,14.42
2018-11-02T12:56:29.780Z,14.41
2018-11-02T12:57:31.145Z,14.44
2018-11-02T12:58:32.511Z,14.44
2018-11-02T12:59:33.910Z,14.38
2018-11-02T13:00:35.293Z,14.46
2018-11-02T13:01:36.688Z,14.39
2018-11-02T13:02:38.076Z,14.49
2018-11-02T13:03:39.467Z,14.45
2018-11-02T13:04:40.858Z,14.39
2018-11-02T13:05:45.425Z,14.49
2018-11-02T13:06:46.764Z,14.52
2018-11-02T13:07:48.715Z,14.57
2018-11-02T13:08:57.012Z,14.48
2018-11-02T13:10:06.959Z,14.54
2018-11-02T13:11:08.992Z,14.56
2018-11-02T13:12:10.355Z,14.49
2018-11-02T13:13:12.823Z,14.57
2018-11-02T13:14:18.061Z,14.60
2018-11-02T13:15:21.971Z,14.56
2018-11-02T13:16:25.173Z,14.59
2018-11-02T13:17:29.740Z,14.60
2018-11-02T13:18:35.234Z,14.52
2018-11-02T13:19:36.616Z,14.52
2018-11-02T13:20:38.008Z,14.54
2018-11-02T13:21:39.439Z,14.53
2018-11-02T13:22:40.797Z,14.48
2018-11-02T13:23:42.490Z,14.41
2018-11-02T13:24:44.021Z,14.46
2018-11-02T13:25:45.492Z,14.46
2018-11-02T13:26:46.806Z,14.52
2018-11-02T13:27:48.206Z,14.44